Airport View

Enter AWOS ICAO identifier for current METAR.

ex. KFNL

KBUU 251725Z AUTO 05007KT 10SM OVC020 05/00 A3022 RMK AO2 T00480002 PWINO

25 Oct 2020 17:26

Frequency: 114.50

Phone: 262-757-0907

Other Area AWOS: K57C - KENW - KUES - KRAC

TAF AMD KENW 251516Z 2515/2612 03006KT P6SM FEW025 BKN035 FM251600 03010KT P6SM VCSH OVC025 FM260600 35008KT P6SM OVC015